sensor_id;sensor_type;location;lat;lon;timestamp;P1;durP1;ratioP1;P2;durP2;ratioP2
39518;SDS011;25200;53.394;10.414;2023-05-07T00:01:50;10.23;;;6.43;;
39518;SDS011;25200;53.394;10.414;2023-05-07T00:04:15;9.52;;;5.28;;
39518;SDS011;25200;53.394;10.414;2023-05-07T00:06:41;8.57;;;5.38;;
39518;SDS011;25200;53.394;10.414;2023-05-07T00:09:06;10.48;;;5.65;;
39518;SDS011;25200;53.394;10.414;2023-05-07T00:11:32;10.85;;;5.85;;
39518;SDS011;25200;53.394;10.414;2023-05-07T00:13:58;10.02;;;6.35;;
39518;SDS011;25200;53.394;10.414;2023-05-07T00:16:24;11.88;;;6.30;;
39518;SDS011;25200;53.394;10.414;2023-05-07T00:18:50;9.65;;;5.75;;
39518;SDS011;25200;53.394;10.414;2023-05-07T00:21:17;11.43;;;6.60;;
39518;SDS011;25200;53.394;10.414;2023-05-07T00:23:43;9.77;;;6.43;;
39518;SDS011;25200;53.394;10.414;2023-05-07T00:26:08;9.60;;;6.00;;
39518;SDS011;25200;53.394;10.414;2023-05-07T00:28:34;9.48;;;5.97;;
39518;SDS011;25200;53.394;10.414;2023-05-07T00:31:00;9.73;;;5.40;;
39518;SDS011;25200;53.394;10.414;2023-05-07T00:33:25;8.60;;;5.43;;
39518;SDS011;25200;53.394;10.414;2023-05-07T00:35:51;8.00;;;4.95;;
39518;SDS011;25200;53.394;10.414;2023-05-07T00:38:19;9.00;;;5.28;;
39518;SDS011;25200;53.394;10.414;2023-05-07T00:40:45;8.73;;;5.07;;
39518;SDS011;25200;53.394;10.414;2023-05-07T00:43:10;8.82;;;5.03;;
39518;SDS011;25200;53.394;10.414;2023-05-07T00:45:37;9.32;;;5.35;;
39518;SDS011;25200;53.394;10.414;2023-05-07T00:48:03;8.85;;;5.00;;
39518;SDS011;25200;53.394;10.414;2023-05-07T00:50:30;10.32;;;4.93;;
39518;SDS011;25200;53.394;10.414;2023-05-07T00:52:56;8.90;;;4.80;;
39518;SDS011;25200;53.394;10.414;2023-05-07T00:55:22;7.43;;;4.68;;
39518;SDS011;25200;53.394;10.414;2023-05-07T00:57:48;7.68;;;4.93;;
39518;SDS011;25200;53.394;10.414;2023-05-07T01:00:15;8.52;;;4.80;;
39518;SDS011;25200;53.394;10.414;2023-05-07T01:02:43;7.72;;;4.75;;
39518;SDS011;25200;53.394;10.414;2023-05-07T01:05:09;9.18;;;4.30;;
39518;SDS011;25200;53.394;10.414;2023-05-07T01:07:37;9.30;;;5.18;;
39518;SDS011;25200;53.394;10.414;2023-05-07T01:10:04;8.60;;;5.45;;
39518;SDS011;25200;53.394;10.414;2023-05-07T01:12:31;8.48;;;4.90;;
39518;SDS011;25200;53.394;10.414;2023-05-07T01:14:58;9.07;;;5.22;;
39518;SDS011;25200;53.394;10.414;2023-05-07T01:17:24;10.30;;;5.85;;
39518;SDS011;25200;53.394;10.414;2023-05-07T01:19:49;9.38;;;5.88;;
39518;SDS011;25200;53.394;10.414;2023-05-07T01:22:16;8.25;;;5.20;;
39518;SDS011;25200;53.394;10.414;2023-05-07T01:24:45;7.88;;;4.70;;
39518;SDS011;25200;53.394;10.414;2023-05-07T01:27:11;9.98;;;5.50;;
39518;SDS011;25200;53.394;10.414;2023-05-07T01:29:37;9.20;;;5.10;;
39518;SDS011;25200;53.394;10.414;2023-05-07T01:32:02;8.70;;;5.03;;
39518;SDS011;25200;53.394;10.414;2023-05-07T01:34:30;10.65;;;6.00;;
39518;SDS011;25200;53.394;10.414;2023-05-07T01:36:59;11.07;;;5.93;;
39518;SDS011;25200;53.394;10.414;2023-05-07T01:39:26;11.18;;;5.93;;
39518;SDS011;25200;53.394;10.414;2023-05-07T01:41:54;9.52;;;5.40;;
39518;SDS011;25200;53.394;10.414;2023-05-07T01:44:21;9.18;;;5.07;;
39518;SDS011;25200;53.394;10.414;2023-05-07T01:46:47;9.95;;;5.63;;
39518;SDS011;25200;53.394;10.414;2023-05-07T01:49:14;8.68;;;5.15;;
39518;SDS011;25200;53.394;10.414;2023-05-07T01:51:40;10.80;;;5.68;;
39518;SDS011;25200;53.394;10.414;2023-05-07T01:54:06;9.20;;;5.25;;
39518;SDS011;25200;53.394;10.414;2023-05-07T01:56:33;11.70;;;5.80;;
39518;SDS011;25200;53.394;10.414;2023-05-07T01:58:59;10.05;;;4.43;;
39518;SDS011;25200;53.394;10.414;2023-05-07T02:01:27;8.80;;;4.93;;
39518;SDS011;25200;53.394;10.414;2023-05-07T02:03:53;9.55;;;5.55;;
39518;SDS011;25200;53.394;10.414;2023-05-07T02:06:19;8.82;;;5.25;;
39518;SDS011;25200;53.394;10.414;2023-05-07T02:08:45;9.55;;;5.50;;
39518;SDS011;25200;53.394;10.414;2023-05-07T02:11:12;10.20;;;6.00;;
39518;SDS011;25200;53.394;10.414;2023-05-07T02:13:37;9.27;;;5.60;;
39518;SDS011;25200;53.394;10.414;2023-05-07T02:16:03;10.23;;;6.15;;
39518;SDS011;25200;53.394;10.414;2023-05-07T02:18:29;11.45;;;5.75;;
39518;SDS011;25200;53.394;10.414;2023-05-07T02:20:55;10.18;;;6.22;;
39518;SDS011;25200;53.394;10.414;2023-05-07T02:23:21;11.18;;;6.35;;
39518;SDS011;25200;53.394;10.414;2023-05-07T02:25:46;10.77;;;5.70;;
39518;SDS011;25200;53.394;10.414;2023-05-07T02:28:12;10.27;;;6.07;;
39518;SDS011;25200;53.394;10.414;2023-05-07T02:30:38;10.52;;;6.32;;
39518;SDS011;25200;53.394;10.414;2023-05-07T02:33:04;12.18;;;6.68;;
39518;SDS011;25200;53.394;10.414;2023-05-07T02:35:30;11.85;;;6.38;;
39518;SDS011;25200;53.394;10.414;2023-05-07T02:37:55;9.98;;;5.85;;
39518;SDS011;25200;53.394;10.414;2023-05-07T02:40:21;12.30;;;6.70;;
39518;SDS011;25200;53.394;10.414;2023-05-07T02:42:47;11.05;;;5.60;;
39518;SDS011;25200;53.394;10.414;2023-05-07T02:45:12;10.13;;;5.90;;
39518;SDS011;25200;53.394;10.414;2023-05-07T02:47:39;9.02;;;5.70;;
39518;SDS011;25200;53.394;10.414;2023-05-07T02:50:05;11.00;;;5.82;;
39518;SDS011;25200;53.394;10.414;2023-05-07T02:52:31;11.15;;;6.20;;
39518;SDS011;25200;53.394;10.414;2023-05-07T02:54:57;10.20;;;5.38;;
39518;SDS011;25200;53.394;10.414;2023-05-07T02:57:22;9.02;;;5.32;;
39518;SDS011;25200;53.394;10.414;2023-05-07T02:59:48;10.30;;;5.85;;
39518;SDS011;25200;53.394;10.414;2023-05-07T03:02:13;10.90;;;6.03;;
39518;SDS011;25200;53.394;10.414;2023-05-07T03:04:39;10.05;;;5.97;;
39518;SDS011;25200;53.394;10.414;2023-05-07T03:07:05;9.57;;;5.25;;
39518;SDS011;25200;53.394;10.414;2023-05-07T03:09:30;8.88;;;5.47;;
39518;SDS011;25200;53.394;10.414;2023-05-07T03:11:56;9.30;;;5.68;;
39518;SDS011;25200;53.394;10.414;2023-05-07T03:14:22;10.35;;;5.72;;
39518;SDS011;25200;53.394;10.414;2023-05-07T03:16:48;10.38;;;5.70;;
39518;SDS011;25200;53.394;10.414;2023-05-07T03:19:14;9.55;;;5.95;;
39518;SDS011;25200;53.394;10.414;2023-05-07T03:21:40;9.02;;;5.10;;
39518;SDS011;25200;53.394;10.414;2023-05-07T03:24:05;10.18;;;5.97;;
39518;SDS011;25200;53.394;10.414;2023-05-07T03:26:31;10.57;;;5.47;;
39518;SDS011;25200;53.394;10.414;2023-05-07T03:28:56;9.52;;;5.80;;
39518;SDS011;25200;53.394;10.414;2023-05-07T03:31:22;9.25;;;5.45;;
39518;SDS011;25200;53.394;10.414;2023-05-07T03:33:52;10.32;;;5.88;;
39518;SDS011;25200;53.394;10.414;2023-05-07T03:36:19;8.65;;;5.53;;
39518;SDS011;25200;53.394;10.414;2023-05-07T03:38:45;9.40;;;5.38;;
39518;SDS011;25200;53.394;10.414;2023-05-07T03:41:11;11.70;;;6.18;;
39518;SDS011;25200;53.394;10.414;2023-05-07T03:43:37;9.88;;;5.53;;
39518;SDS011;25200;53.394;10.414;2023-05-07T03:46:02;9.30;;;5.60;;
39518;SDS011;25200;53.394;10.414;2023-05-07T03:48:28;10.68;;;5.88;;
39518;SDS011;25200;53.394;10.414;2023-05-07T03:50:53;9.82;;;5.10;;
39518;SDS011;25200;53.394;10.414;2023-05-07T03:53:19;9.65;;;5.50;;
39518;SDS011;25200;53.394;10.414;2023-05-07T03:55:45;8.48;;;5.55;;
39518;SDS011;25200;53.394;10.414;2023-05-07T03:58:10;10.93;;;5.75;;
39518;SDS011;25200;53.394;10.414;2023-05-07T04:00:36;10.35;;;5.78;;
39518;SDS011;25200;53.394;10.414;2023-05-07T04:03:05;8.90;;;5.13;;
39518;SDS011;25200;53.394;10.414;2023-05-07T04:05:31;10.57;;;5.60;;
39518;SDS011;25200;53.394;10.414;2023-05-07T04:07:57;11.68;;;6.20;;
39518;SDS011;25200;53.394;10.414;2023-05-07T04:10:24;11.20;;;5.45;;
39518;SDS011;25200;53.394;10.414;2023-05-07T04:12:49;11.90;;;6.05;;
39518;SDS011;25200;53.394;10.414;2023-05-07T04:15:15;9.23;;;5.45;;
39518;SDS011;25200;53.394;10.414;2023-05-07T04:17:41;9.13;;;5.55;;
39518;SDS011;25200;53.394;10.414;2023-05-07T04:20:08;9.63;;;5.03;;
39518;SDS011;25200;53.394;10.414;2023-05-07T04:22:35;9.07;;;5.22;;
39518;SDS011;25200;53.394;10.414;2023-05-07T04:25:01;10.75;;;5.43;;
39518;SDS011;25200;53.394;10.414;2023-05-07T04:27:27;9.10;;;5.47;;
39518;SDS011;25200;53.394;10.414;2023-05-07T04:29:53;9.25;;;5.20;;
39518;SDS011;25200;53.394;10.414;2023-05-07T04:32:21;8.30;;;5.22;;
39518;SDS011;25200;53.394;10.414;2023-05-07T04:34:47;12.93;;;5.82;;
39518;SDS011;25200;53.394;10.414;2023-05-07T04:37:12;9.95;;;5.72;;
39518;SDS011;25200;53.394;10.414;2023-05-07T04:39:38;10.98;;;5.47;;
39518;SDS011;25200;53.394;10.414;2023-05-07T04:42:04;9.88;;;5.78;;
39518;SDS011;25200;53.394;10.414;2023-05-07T04:44:30;9.57;;;5.72;;
39518;SDS011;25200;53.394;10.414;2023-05-07T04:46:56;8.07;;;5.10;;
39518;SDS011;25200;53.394;10.414;2023-05-07T04:49:22;9.60;;;5.32;;
39518;SDS011;25200;53.394;10.414;2023-05-07T04:51:48;9.90;;;5.28;;
39518;SDS011;25200;53.394;10.414;2023-05-07T04:54:13;8.80;;;4.70;;
39518;SDS011;25200;53.394;10.414;2023-05-07T04:56:39;9.50;;;5.30;;
39518;SDS011;25200;53.394;10.414;2023-05-07T04:59:04;8.98;;;5.55;;
39518;SDS011;25200;53.394;10.414;2023-05-07T05:01:30;10.32;;;6.07;;
39518;SDS011;25200;53.394;10.414;2023-05-07T05:03:56;9.60;;;5.45;;
39518;SDS011;25200;53.394;10.414;2023-05-07T05:06:22;9.80;;;5.30;;
39518;SDS011;25200;53.394;10.414;2023-05-07T05:08:47;8.57;;;5.57;;
39518;SDS011;25200;53.394;10.414;2023-05-07T05:11:13;11.02;;;6.25;;
39518;SDS011;25200;53.394;10.414;2023-05-07T05:13:39;9.00;;;5.22;;
39518;SDS011;25200;53.394;10.414;2023-05-07T05:16:05;9.65;;;5.53;;
39518;SDS011;25200;53.394;10.414;2023-05-07T05:18:31;10.48;;;6.55;;
39518;SDS011;25200;53.394;10.414;2023-05-07T05:20:57;9.10;;;5.35;;
39518;SDS011;25200;53.394;10.414;2023-05-07T05:23:22;9.50;;;5.55;;
39518;SDS011;25200;53.394;10.414;2023-05-07T05:25:48;9.85;;;5.70;;
39518;SDS011;25200;53.394;10.414;2023-05-07T05:28:14;10.02;;;5.78;;
39518;SDS011;25200;53.394;10.414;2023-05-07T05:30:39;7.75;;;5.10;;
39518;SDS011;25200;53.394;10.414;2023-05-07T05:33:05;9.40;;;5.70;;
39518;SDS011;25200;53.394;10.414;2023-05-07T05:35:30;9.90;;;5.80;;
39518;SDS011;25200;53.394;10.414;2023-05-07T05:37:56;10.55;;;5.63;;
39518;SDS011;25200;53.394;10.414;2023-05-07T05:40:22;8.30;;;5.28;;
39518;SDS011;25200;53.394;10.414;2023-05-07T05:42:48;8.77;;;5.20;;
39518;SDS011;25200;53.394;10.414;2023-05-07T05:45:13;8.45;;;5.40;;
39518;SDS011;25200;53.394;10.414;2023-05-07T05:47:40;12.50;;;5.82;;
39518;SDS011;25200;53.394;10.414;2023-05-07T05:50:06;9.60;;;5.80;;
39518;SDS011;25200;53.394;10.414;2023-05-07T05:52:32;10.57;;;5.53;;
39518;SDS011;25200;53.394;10.414;2023-05-07T05:54:58;11.63;;;5.63;;
39518;SDS011;25200;53.394;10.414;2023-05-07T05:57:23;10.30;;;5.30;;
39518;SDS011;25200;53.394;10.414;2023-05-07T05:59:49;11.70;;;6.10;;
39518;SDS011;25200;53.394;10.414;2023-05-07T06:02:15;11.15;;;5.40;;
39518;SDS011;25200;53.394;10.414;2023-05-07T06:04:40;9.07;;;5.40;;
39518;SDS011;25200;53.394;10.414;2023-05-07T06:07:07;8.35;;;5.18;;
39518;SDS011;25200;53.394;10.414;2023-05-07T06:09:33;9.40;;;5.30;;
39518;SDS011;25200;53.394;10.414;2023-05-07T06:11:58;9.52;;;5.43;;
39518;SDS011;25200;53.394;10.414;2023-05-07T06:14:24;9.13;;;5.00;;
39518;SDS011;25200;53.394;10.414;2023-05-07T06:16:50;7.93;;;4.72;;
39518;SDS011;25200;53.394;10.414;2023-05-07T06:19:15;9.00;;;4.75;;
39518;SDS011;25200;53.394;10.414;2023-05-07T06:21:43;10.48;;;5.13;;
39518;SDS011;25200;53.394;10.414;2023-05-07T06:24:08;8.45;;;4.57;;
39518;SDS011;25200;53.394;10.414;2023-05-07T06:26:34;8.18;;;5.15;;
39518;SDS011;25200;53.394;10.414;2023-05-07T06:29:00;8.88;;;4.95;;
39518;SDS011;25200;53.394;10.414;2023-05-07T06:31:28;8.82;;;4.78;;
39518;SDS011;25200;53.394;10.414;2023-05-07T06:33:56;8.30;;;4.95;;
39518;SDS011;25200;53.394;10.414;2023-05-07T06:36:21;8.38;;;4.80;;
39518;SDS011;25200;53.394;10.414;2023-05-07T06:38:47;8.75;;;4.78;;
39518;SDS011;25200;53.394;10.414;2023-05-07T06:41:12;8.00;;;5.05;;
39518;SDS011;25200;53.394;10.414;2023-05-07T06:43:38;9.55;;;4.70;;
39518;SDS011;25200;53.394;10.414;2023-05-07T06:46:03;7.95;;;4.85;;
39518;SDS011;25200;53.394;10.414;2023-05-07T06:48:30;8.88;;;4.93;;
39518;SDS011;25200;53.394;10.414;2023-05-07T06:50:58;8.80;;;4.47;;
39518;SDS011;25200;53.394;10.414;2023-05-07T06:53:24;9.75;;;5.03;;
39518;SDS011;25200;53.394;10.414;2023-05-07T06:55:51;8.13;;;4.50;;
39518;SDS011;25200;53.394;10.414;2023-05-07T06:58:17;8.50;;;4.68;;
39518;SDS011;25200;53.394;10.414;2023-05-07T07:00:42;8.43;;;4.97;;
39518;SDS011;25200;53.394;10.414;2023-05-07T07:03:08;9.50;;;4.35;;
39518;SDS011;25200;53.394;10.414;2023-05-07T07:05:35;7.25;;;4.10;;
39518;SDS011;25200;53.394;10.414;2023-05-07T07:08:00;10.93;;;5.13;;
39518;SDS011;25200;53.394;10.414;2023-05-07T07:10:26;7.20;;;4.35;;
39518;SDS011;25200;53.394;10.414;2023-05-07T07:12:52;8.05;;;4.38;;
39518;SDS011;25200;53.394;10.414;2023-05-07T07:15:17;7.85;;;4.05;;
39518;SDS011;25200;53.394;10.414;2023-05-07T07:17:45;7.82;;;4.13;;
39518;SDS011;25200;53.394;10.414;2023-05-07T07:20:11;7.20;;;4.32;;
39518;SDS011;25200;53.394;10.414;2023-05-07T07:22:37;7.22;;;4.25;;
39518;SDS011;25200;53.394;10.414;2023-05-07T07:25:02;6.32;;;4.03;;
39518;SDS011;25200;53.394;10.414;2023-05-07T07:27:28;9.77;;;4.70;;
39518;SDS011;25200;53.394;10.414;2023-05-07T07:29:54;7.10;;;3.90;;
39518;SDS011;25200;53.394;10.414;2023-05-07T07:32:19;8.40;;;4.53;;
39518;SDS011;25200;53.394;10.414;2023-05-07T07:34:45;8.25;;;4.38;;
39518;SDS011;25200;53.394;10.414;2023-05-07T07:37:11;9.68;;;5.05;;
39518;SDS011;25200;53.394;10.414;2023-05-07T07:39:36;8.73;;;4.50;;
39518;SDS011;25200;53.394;10.414;2023-05-07T07:42:06;7.75;;;4.53;;
39518;SDS011;25200;53.394;10.414;2023-05-07T07:44:31;7.30;;;4.30;;
39518;SDS011;25200;53.394;10.414;2023-05-07T07:46:57;7.20;;;4.35;;
39518;SDS011;25200;53.394;10.414;2023-05-07T07:49:23;7.78;;;4.35;;
39518;SDS011;25200;53.394;10.414;2023-05-07T07:51:48;8.30;;;4.80;;
39518;SDS011;25200;53.394;10.414;2023-05-07T07:54:14;9.50;;;5.10;;
39518;SDS011;25200;53.394;10.414;2023-05-07T07:56:39;8.45;;;4.80;;
39518;SDS011;25200;53.394;10.414;2023-05-07T07:59:05;8.02;;;5.07;;
39518;SDS011;25200;53.394;10.414;2023-05-07T08:01:31;8.57;;;5.00;;
39518;SDS011;25200;53.394;10.414;2023-05-07T08:03:57;10.25;;;4.70;;
39518;SDS011;25200;53.394;10.414;2023-05-07T08:06:27;9.27;;;5.18;;
39518;SDS011;25200;53.394;10.414;2023-05-07T08:08:53;9.45;;;5.32;;
39518;SDS011;25200;53.394;10.414;2023-05-07T08:11:19;8.50;;;4.90;;
39518;SDS011;25200;53.394;10.414;2023-05-07T08:13:46;10.40;;;4.78;;
39518;SDS011;25200;53.394;10.414;2023-05-07T08:16:12;8.25;;;4.82;;
39518;SDS011;25200;53.394;10.414;2023-05-07T08:18:37;6.28;;;4.03;;
39518;SDS011;25200;53.394;10.414;2023-05-07T08:21:03;8.27;;;4.50;;
39518;SDS011;25200;53.394;10.414;2023-05-07T08:23:29;7.68;;;4.50;;
39518;SDS011;25200;53.394;10.414;2023-05-07T08:25:55;7.28;;;4.25;;
39518;SDS011;25200;53.394;10.414;2023-05-07T08:28:21;8.23;;;4.50;;
39518;SDS011;25200;53.394;10.414;2023-05-07T08:30:46;8.07;;;4.95;;
39518;SDS011;25200;53.394;10.414;2023-05-07T08:33:12;7.95;;;4.40;;
39518;SDS011;25200;53.394;10.414;2023-05-07T08:35:38;8.82;;;4.45;;
39518;SDS011;25200;53.394;10.414;2023-05-07T08:38:03;6.95;;;3.97;;
39518;SDS011;25200;53.394;10.414;2023-05-07T08:40:29;6.78;;;3.97;;
39518;SDS011;25200;53.394;10.414;2023-05-07T08:43:03;7.75;;;4.40;;
39518;SDS011;25200;53.394;10.414;2023-05-07T08:45:30;7.20;;;4.28;;
39518;SDS011;25200;53.394;10.414;2023-05-07T08:47:59;8.38;;;4.50;;
39518;SDS011;25200;53.394;10.414;2023-05-07T08:50:27;7.55;;;4.32;;
39518;SDS011;25200;53.394;10.414;2023-05-07T08:52:53;7.38;;;4.20;;
39518;SDS011;25200;53.394;10.414;2023-05-07T08:55:18;7.22;;;4.10;;
39518;SDS011;25200;53.394;10.414;2023-05-07T08:57:45;8.68;;;4.45;;
39518;SDS011;25200;53.394;10.414;2023-05-07T09:00:12;7.95;;;4.10;;
39518;SDS011;25200;53.394;10.414;2023-05-07T09:02:38;6.55;;;4.25;;
39518;SDS011;25200;53.394;10.414;2023-05-07T09:05:03;7.25;;;4.28;;
39518;SDS011;25200;53.394;10.414;2023-05-07T09:07:30;6.88;;;3.97;;
39518;SDS011;25200;53.394;10.414;2023-05-07T09:09:56;7.45;;;4.05;;
39518;SDS011;25200;53.394;10.414;2023-05-07T09:12:22;7.50;;;4.00;;
39518;SDS011;25200;53.394;10.414;2023-05-07T09:14:48;8.30;;;4.18;;
39518;SDS011;25200;53.394;10.414;2023-05-07T09:17:15;7.55;;;4.63;;
39518;SDS011;25200;53.394;10.414;2023-05-07T09:19:42;6.85;;;4.05;;
39518;SDS011;25200;53.394;10.414;2023-05-07T09:22:10;8.52;;;4.35;;
39518;SDS011;25200;53.394;10.414;2023-05-07T09:24:36;7.45;;;4.38;;
39518;SDS011;25200;53.394;10.414;2023-05-07T09:27:06;7.15;;;4.40;;
39518;SDS011;25200;53.394;10.414;2023-05-07T09:29:33;7.13;;;4.00;;
39518;SDS011;25200;53.394;10.414;2023-05-07T09:32:06;6.82;;;3.92;;
39518;SDS011;25200;53.394;10.414;2023-05-07T09:34:32;8.38;;;4.30;;
39518;SDS011;25200;53.394;10.414;2023-05-07T09:37:02;10.10;;;4.47;;
39518;SDS011;25200;53.394;10.414;2023-05-07T09:39:42;7.65;;;4.40;;
39518;SDS011;25200;53.394;10.414;2023-05-07T09:42:08;6.38;;;3.85;;
39518;SDS011;25200;53.394;10.414;2023-05-07T09:44:34;6.68;;;3.97;;
39518;SDS011;25200;53.394;10.414;2023-05-07T09:47:00;7.53;;;3.95;;
39518;SDS011;25200;53.394;10.414;2023-05-07T09:49:29;8.23;;;4.05;;
39518;SDS011;25200;53.394;10.414;2023-05-07T09:51:58;8.80;;;4.53;;
39518;SDS011;25200;53.394;10.414;2023-05-07T09:54:26;6.68;;;4.22;;
39518;SDS011;25200;53.394;10.414;2023-05-07T09:56:54;7.18;;;4.18;;
39518;SDS011;25200;53.394;10.414;2023-05-07T09:59:20;6.78;;;3.47;;
39518;SDS011;25200;53.394;10.414;2023-05-07T10:01:47;7.75;;;3.90;;
39518;SDS011;25200;53.394;10.414;2023-05-07T10:04:13;9.07;;;3.95;;
39518;SDS011;25200;53.394;10.414;2023-05-07T10:06:40;7.78;;;3.63;;
39518;SDS011;25200;53.394;10.414;2023-05-07T10:09:06;8.07;;;3.95;;
39518;SDS011;25200;53.394;10.414;2023-05-07T10:11:33;7.72;;;3.95;;
39518;SDS011;25200;53.394;10.414;2023-05-07T10:14:00;7.35;;;4.13;;
39518;SDS011;25200;53.394;10.414;2023-05-07T10:16:27;7.53;;;3.67;;
39518;SDS011;25200;53.394;10.414;2023-05-07T10:18:57;8.68;;;3.80;;
39518;SDS011;25200;53.394;10.414;2023-05-07T10:21:24;5.97;;;3.50;;
39518;SDS011;25200;53.394;10.414;2023-05-07T10:24:05;10.35;;;3.95;;
39518;SDS011;25200;53.394;10.414;2023-05-07T10:26:39;7.13;;;3.80;;
39518;SDS011;25200;53.394;10.414;2023-05-07T10:30:14;7.55;;;3.70;;
39518;SDS011;25200;53.394;10.414;2023-05-07T10:35:03;5.82;;;3.55;;
39518;SDS011;25200;53.394;10.414;2023-05-07T10:37:32;6.72;;;3.90;;
39518;SDS011;25200;53.394;10.414;2023-05-07T10:39:58;7.25;;;3.40;;
39518;SDS011;25200;53.394;10.414;2023-05-07T10:42:24;5.75;;;3.47;;
39518;SDS011;25200;53.394;10.414;2023-05-07T10:44:50;6.25;;;3.60;;
39518;SDS011;25200;53.394;10.414;2023-05-07T10:47:16;6.95;;;3.00;;
39518;SDS011;25200;53.394;10.414;2023-05-07T10:54:41;6.43;;;3.22;;
39518;SDS011;25200;53.394;10.414;2023-05-07T11:00:01;7.85;;;3.17;;
39518;SDS011;25200;53.394;10.414;2023-05-07T11:05:25;5.93;;;3.40;;
39518;SDS011;25200;53.394;10.414;2023-05-07T11:07:54;5.07;;;2.70;;
39518;SDS011;25200;53.394;10.414;2023-05-07T11:10:21;5.55;;;3.10;;
39518;SDS011;25200;53.394;10.414;2023-05-07T11:12:48;7.43;;;3.10;;
39518;SDS011;25200;53.394;10.414;2023-05-07T11:15:15;8.27;;;2.90;;
39518;SDS011;25200;53.394;10.414;2023-05-07T11:17:58;8.10;;;3.38;;
39518;SDS011;25200;53.394;10.414;2023-05-07T11:26:08;6.88;;;2.63;;
39518;SDS011;25200;53.394;10.414;2023-05-07T11:28:37;5.45;;;2.90;;
39518;SDS011;25200;53.394;10.414;2023-05-07T11:31:03;7.40;;;2.55;;
39518;SDS011;25200;53.394;10.414;2023-05-07T11:33:29;5.40;;;2.55;;
39518;SDS011;25200;53.394;10.414;2023-05-07T11:35:56;4.60;;;2.38;;
39518;SDS011;25200;53.394;10.414;2023-05-07T11:38:22;7.22;;;2.90;;
39518;SDS011;25200;53.394;10.414;2023-05-07T11:40:53;7.45;;;2.78;;
39518;SDS011;25200;53.394;10.414;2023-05-07T11:43:25;3.65;;;2.22;;
39518;SDS011;25200;53.394;10.414;2023-05-07T11:45:51;5.25;;;2.38;;
39518;SDS011;25200;53.394;10.414;2023-05-07T11:48:17;4.95;;;2.72;;
39518;SDS011;25200;53.394;10.414;2023-05-07T11:50:50;4.50;;;2.28;;
39518;SDS011;25200;53.394;10.414;2023-05-07T11:53:19;5.97;;;2.20;;
39518;SDS011;25200;53.394;10.414;2023-05-07T11:55:45;4.15;;;2.47;;
39518;SDS011;25200;53.394;10.414;2023-05-07T11:58:12;4.57;;;2.30;;
39518;SDS011;25200;53.394;10.414;2023-05-07T12:00:51;4.07;;;2.03;;
39518;SDS011;25200;53.394;10.414;2023-05-07T12:03:19;4.32;;;2.30;;
39518;SDS011;25200;53.394;10.414;2023-05-07T12:05:45;4.68;;;2.30;;
39518;SDS011;25200;53.394;10.414;2023-05-07T12:08:14;4.40;;;2.22;;
39518;SDS011;25200;53.394;10.414;2023-05-07T12:10:41;5.13;;;2.20;;
39518;SDS011;25200;53.394;10.414;2023-05-07T12:13:21;4.38;;;2.30;;
39518;SDS011;25200;53.394;10.414;2023-05-07T12:15:54;4.00;;;1.98;;
39518;SDS011;25200;53.394;10.414;2023-05-07T12:18:21;4.75;;;2.17;;
39518;SDS011;25200;53.394;10.414;2023-05-07T12:20:47;3.25;;;1.80;;
39518;SDS011;25200;53.394;10.414;2023-05-07T12:23:14;4.03;;;1.88;;
39518;SDS011;25200;53.394;10.414;2023-05-07T12:25:41;4.38;;;2.05;;
39518;SDS011;25200;53.394;10.414;2023-05-07T12:28:13;4.20;;;1.98;;
39518;SDS011;25200;53.394;10.414;2023-05-07T12:30:44;3.90;;;2.10;;
39518;SDS011;25200;53.394;10.414;2023-05-07T12:33:11;3.78;;;2.05;;
39518;SDS011;25200;53.394;10.414;2023-05-07T12:35:41;5.43;;;2.00;;
39518;SDS011;25200;53.394;10.414;2023-05-07T12:38:14;3.20;;;1.73;;
39518;SDS011;25200;53.394;10.414;2023-05-07T12:40:45;4.88;;;2.08;;
39518;SDS011;25200;53.394;10.414;2023-05-07T12:43:19;3.33;;;1.70;;
39518;SDS011;25200;53.394;10.414;2023-05-07T12:45:46;4.28;;;2.30;;
39518;SDS011;25200;53.394;10.414;2023-05-07T12:48:13;4.80;;;2.10;;
39518;SDS011;25200;53.394;10.414;2023-05-07T12:50:39;3.75;;;2.00;;
39518;SDS011;25200;53.394;10.414;2023-05-07T12:53:05;4.35;;;2.00;;
39518;SDS011;25200;53.394;10.414;2023-05-07T12:55:39;5.40;;;2.05;;
39518;SDS011;25200;53.394;10.414;2023-05-07T12:58:18;3.55;;;1.80;;
39518;SDS011;25200;53.394;10.414;2023-05-07T13:00:44;4.00;;;1.98;;
39518;SDS011;25200;53.394;10.414;2023-05-07T13:03:16;4.25;;;1.75;;
39518;SDS011;25200;53.394;10.414;2023-05-07T13:05:56;3.80;;;1.80;;
39518;SDS011;25200;53.394;10.414;2023-05-07T13:08:24;3.95;;;2.13;;
39518;SDS011;25200;53.394;10.414;2023-05-07T13:10:51;6.38;;;2.03;;
39518;SDS011;25200;53.394;10.414;2023-05-07T13:13:18;4.53;;;2.00;;
39518;SDS011;25200;53.394;10.414;2023-05-07T13:15:45;4.35;;;1.92;;
39518;SDS011;25200;53.394;10.414;2023-05-07T13:18:11;4.07;;;1.88;;
39518;SDS011;25200;53.394;10.414;2023-05-07T13:20:36;3.22;;;1.80;;
39518;SDS011;25200;53.394;10.414;2023-05-07T13:23:02;4.95;;;1.90;;
39518;SDS011;25200;53.394;10.414;2023-05-07T13:25:29;3.92;;;2.00;;
39518;SDS011;25200;53.394;10.414;2023-05-07T13:27:56;4.80;;;2.20;;
39518;SDS011;25200;53.394;10.414;2023-05-07T13:30:22;3.45;;;1.80;;
39518;SDS011;25200;53.394;10.414;2023-05-07T13:32:48;2.95;;;1.65;;
39518;SDS011;25200;53.394;10.414;2023-05-07T13:35:14;3.03;;;1.70;;
39518;SDS011;25200;53.394;10.414;2023-05-07T13:37:40;4.25;;;1.75;;
39518;SDS011;25200;53.394;10.414;2023-05-07T13:40:05;4.22;;;1.90;;
39518;SDS011;25200;53.394;10.414;2023-05-07T13:42:31;4.00;;;1.85;;
39518;SDS011;25200;53.394;10.414;2023-05-07T13:44:57;3.75;;;1.77;;
39518;SDS011;25200;53.394;10.414;2023-05-07T13:47:23;3.65;;;2.00;;
39518;SDS011;25200;53.394;10.414;2023-05-07T13:49:48;4.13;;;1.80;;
39518;SDS011;25200;53.394;10.414;2023-05-07T13:52:15;3.67;;;1.80;;
39518;SDS011;25200;53.394;10.414;2023-05-07T13:54:41;3.40;;;1.77;;
39518;SDS011;25200;53.394;10.414;2023-05-07T13:57:07;3.63;;;1.85;;
39518;SDS011;25200;53.394;10.414;2023-05-07T13:59:33;3.10;;;1.60;;
39518;SDS011;25200;53.394;10.414;2023-05-07T14:01:59;3.50;;;1.80;;
39518;SDS011;25200;53.394;10.414;2023-05-07T14:04:24;4.07;;;1.77;;
39518;SDS011;25200;53.394;10.414;2023-05-07T14:06:50;5.05;;;2.03;;
39518;SDS011;25200;53.394;10.414;2023-05-07T14:09:16;4.05;;;1.92;;
39518;SDS011;25200;53.394;10.414;2023-05-07T14:11:42;3.58;;;1.83;;
39518;SDS011;25200;53.394;10.414;2023-05-07T14:14:08;3.60;;;1.80;;
39518;SDS011;25200;53.394;10.414;2023-05-07T14:16:35;3.28;;;1.90;;
39518;SDS011;25200;53.394;10.414;2023-05-07T14:19:02;2.78;;;1.50;;
39518;SDS011;25200;53.394;10.414;2023-05-07T14:21:27;6.65;;;1.88;;
39518;SDS011;25200;53.394;10.414;2023-05-07T14:23:53;5.05;;;2.00;;
39518;SDS011;25200;53.394;10.414;2023-05-07T14:26:19;4.32;;;2.00;;
39518;SDS011;25200;53.394;10.414;2023-05-07T14:28:45;3.72;;;1.80;;
39518;SDS011;25200;53.394;10.414;2023-05-07T14:31:11;3.50;;;2.00;;
39518;SDS011;25200;53.394;10.414;2023-05-07T14:33:37;4.28;;;1.88;;
39518;SDS011;25200;53.394;10.414;2023-05-07T14:36:03;3.88;;;2.00;;
39518;SDS011;25200;53.394;10.414;2023-05-07T14:38:29;3.92;;;1.88;;
39518;SDS011;25200;53.394;10.414;2023-05-07T14:40:57;3.20;;;1.52;;
39518;SDS011;25200;53.394;10.414;2023-05-07T14:43:23;4.95;;;1.70;;
39518;SDS011;25200;53.394;10.414;2023-05-07T14:45:49;3.85;;;1.80;;
39518;SDS011;25200;53.394;10.414;2023-05-07T14:48:15;3.17;;;1.52;;